sensor_id;sensor_type;location;lat;lon;timestamp;pressure;altitude;pressure_sealevel;temperature;humidity
65832;BME280;52593;42.648;23.332;2023-08-07T00:02:15;94001.16;;;16.23;76.07
65832;BME280;52593;42.648;23.332;2023-08-07T00:04:41;94000.13;;;16.24;76.20
65832;BME280;52593;42.648;23.332;2023-08-07T00:07:06;94000.94;;;16.25;75.78
65832;BME280;52593;42.648;23.332;2023-08-07T00:09:31;93998.94;;;16.20;76.41
65832;BME280;52593;42.648;23.332;2023-08-07T00:11:57;93995.19;;;16.21;75.42
65832;BME280;52593;42.648;23.332;2023-08-07T00:14:22;94008.31;;;16.17;76.19
65832;BME280;52593;42.648;23.332;2023-08-07T00:16:47;94006.09;;;16.14;76.80
65832;BME280;52593;42.648;23.332;2023-08-07T00:19:13;93996.44;;;16.07;76.90
65832;BME280;52593;42.648;23.332;2023-08-07T00:21:38;93994.22;;;16.03;77.43
65832;BME280;52593;42.648;23.332;2023-08-07T00:24:04;93995.16;;;15.97;77.69
65832;BME280;52593;42.648;23.332;2023-08-07T00:26:29;93996.75;;;15.98;77.50
65832;BME280;52593;42.648;23.332;2023-08-07T00:28:57;93993.50;;;15.96;77.80
65832;BME280;52593;42.648;23.332;2023-08-07T00:31:22;93994.53;;;15.95;77.92
65832;BME280;52593;42.648;23.332;2023-08-07T00:33:48;94004.75;;;15.93;78.17
65832;BME280;52593;42.648;23.332;2023-08-07T00:36:17;94007.66;;;15.92;78.30
65832;BME280;52593;42.648;23.332;2023-08-07T00:38:42;93999.81;;;15.90;78.18
65832;BME280;52593;42.648;23.332;2023-08-07T00:41:07;94016.69;;;15.85;79.14
65832;BME280;52593;42.648;23.332;2023-08-07T00:43:35;94017.13;;;15.82;79.47
65832;BME280;52593;42.648;23.332;2023-08-07T00:46:00;94023.13;;;15.84;79.35
65832;BME280;52593;42.648;23.332;2023-08-07T00:48:26;94019.69;;;15.77;79.28
65832;BME280;52593;42.648;23.332;2023-08-07T00:50:52;94027.34;;;15.80;79.81
65832;BME280;52593;42.648;23.332;2023-08-07T00:53:19;94028.28;;;15.67;80.49
65832;BME280;52593;42.648;23.332;2023-08-07T00:55:46;94034.59;;;15.61;80.97
65832;BME280;52593;42.648;23.332;2023-08-07T00:58:12;94039.53;;;15.64;81.15
65832;BME280;52593;42.648;23.332;2023-08-07T01:00:37;94044.81;;;15.59;81.63
65832;BME280;52593;42.648;23.332;2023-08-07T01:03:05;94043.47;;;15.50;82.05
65832;BME280;52593;42.648;23.332;2023-08-07T01:05:31;94042.94;;;15.41;82.54
65832;BME280;52593;42.648;23.332;2023-08-07T01:07:57;94041.50;;;15.39;83.00
65832;BME280;52593;42.648;23.332;2023-08-07T01:10:41;94045.72;;;15.34;83.50
65832;BME280;52593;42.648;23.332;2023-08-07T01:16:05;94049.09;;;15.30;83.68
65832;BME280;52593;42.648;23.332;2023-08-07T01:18:34;94058.13;;;15.36;83.64
65832;BME280;52593;42.648;23.332;2023-08-07T01:21:03;94066.44;;;15.34;83.82
65832;BME280;52593;42.648;23.332;2023-08-07T01:23:29;94062.69;;;15.54;83.77
65832;BME280;52593;42.648;23.332;2023-08-07T01:25:54;94059.47;;;15.63;83.57
65832;BME280;52593;42.648;23.332;2023-08-07T01:28:27;94058.28;;;15.59;84.16
65832;BME280;52593;42.648;23.332;2023-08-07T01:30:55;94063.06;;;15.57;83.78
65832;BME280;52593;42.648;23.332;2023-08-07T01:33:32;94061.88;;;15.53;84.71
65832;BME280;52593;42.648;23.332;2023-08-07T01:36:02;94057.41;;;15.47;84.13
65832;BME280;52593;42.648;23.332;2023-08-07T01:38:30;94057.47;;;15.40;84.07
65832;BME280;52593;42.648;23.332;2023-08-07T01:40:56;94052.38;;;15.32;84.50
65832;BME280;52593;42.648;23.332;2023-08-07T01:43:22;94055.88;;;15.32;84.71
65832;BME280;52593;42.648;23.332;2023-08-07T01:45:47;94045.97;;;15.33;84.73
65832;BME280;52593;42.648;23.332;2023-08-07T01:48:13;94053.59;;;15.18;85.52
65832;BME280;52593;42.648;23.332;2023-08-07T01:50:39;94049.25;;;15.16;85.71
65832;BME280;52593;42.648;23.332;2023-08-07T01:53:05;94057.31;;;15.16;86.13
65832;BME280;52593;42.648;23.332;2023-08-07T01:55:31;94055.88;;;15.14;86.21
65832;BME280;52593;42.648;23.332;2023-08-07T01:57:57;94055.22;;;15.19;85.98
65832;BME280;52593;42.648;23.332;2023-08-07T02:00:23;94059.56;;;15.20;85.72
65832;BME280;52593;42.648;23.332;2023-08-07T02:02:48;94057.69;;;15.20;85.20
65832;BME280;52593;42.648;23.332;2023-08-07T02:05:14;94064.16;;;15.19;85.18
65832;BME280;52593;42.648;23.332;2023-08-07T02:07:40;94070.34;;;15.20;84.56
65832;BME280;52593;42.648;23.332;2023-08-07T02:10:06;94078.66;;;15.18;85.04
65832;BME280;52593;42.648;23.332;2023-08-07T02:12:31;94075.06;;;15.43;84.63
65832;BME280;52593;42.648;23.332;2023-08-07T02:15:00;94074.31;;;15.36;84.94
65832;BME280;52593;42.648;23.332;2023-08-07T02:17:27;94074.47;;;15.22;85.91
65832;BME280;52593;42.648;23.332;2023-08-07T02:19:53;94082.38;;;15.17;86.66
65832;BME280;52593;42.648;23.332;2023-08-07T02:22:19;94080.00;;;15.09;87.69
65832;BME280;52593;42.648;23.332;2023-08-07T02:24:44;94084.78;;;15.07;87.92
65832;BME280;52593;42.648;23.332;2023-08-07T02:27:09;94083.88;;;15.13;87.84
65832;BME280;52593;42.648;23.332;2023-08-07T02:29:35;94093.63;;;15.14;87.42
65832;BME280;52593;42.648;23.332;2023-08-07T02:32:02;94080.31;;;15.19;86.44
65832;BME280;52593;42.648;23.332;2023-08-07T02:34:28;94090.47;;;15.17;86.69
65832;BME280;52593;42.648;23.332;2023-08-07T02:36:54;94084.28;;;15.16;86.78
65832;BME280;52593;42.648;23.332;2023-08-07T02:39:19;94080.00;;;15.09;86.37
65832;BME280;52593;42.648;23.332;2023-08-07T02:41:44;94081.72;;;15.03;86.37
65832;BME280;52593;42.648;23.332;2023-08-07T02:44:11;94084.91;;;14.93;86.84
65832;BME280;52593;42.648;23.332;2023-08-07T02:46:36;94082.78;;;14.77;88.19
65832;BME280;52593;42.648;23.332;2023-08-07T02:49:02;94084.16;;;14.61;89.31
65832;BME280;52593;42.648;23.332;2023-08-07T02:51:27;94087.25;;;14.65;89.34
65832;BME280;52593;42.648;23.332;2023-08-07T02:53:53;94091.59;;;14.59;89.55
65832;BME280;52593;42.648;23.332;2023-08-07T02:56:18;94090.16;;;14.63;89.03
65832;BME280;52593;42.648;23.332;2023-08-07T02:58:43;94098.44;;;14.61;88.56
65832;BME280;52593;42.648;23.332;2023-08-07T03:01:09;94098.00;;;14.65;88.39
65832;BME280;52593;42.648;23.332;2023-08-07T03:03:34;94106.09;;;14.65;89.05
65832;BME280;52593;42.648;23.332;2023-08-07T03:06:00;94105.50;;;14.62;88.74
65832;BME280;52593;42.648;23.332;2023-08-07T03:08:25;94108.25;;;14.49;89.78
65832;BME280;52593;42.648;23.332;2023-08-07T03:10:52;94112.81;;;14.49;89.84
65832;BME280;52593;42.648;23.332;2023-08-07T03:13:18;94113.19;;;14.52;89.67
65832;BME280;52593;42.648;23.332;2023-08-07T03:16:04;94115.06;;;14.52;89.89
65832;BME280;52593;42.648;23.332;2023-08-07T03:18:30;94116.03;;;14.64;89.96
65832;BME280;52593;42.648;23.332;2023-08-07T03:20:56;94118.97;;;14.62;89.36
65832;BME280;52593;42.648;23.332;2023-08-07T03:23:22;94120.59;;;14.63;89.21
65832;BME280;52593;42.648;23.332;2023-08-07T03:25:48;94126.41;;;14.60;89.77
65832;BME280;52593;42.648;23.332;2023-08-07T03:28:14;94122.69;;;14.61;89.72
65832;BME280;52593;42.648;23.332;2023-08-07T03:30:39;94128.00;;;14.68;89.51
65832;BME280;52593;42.648;23.332;2023-08-07T03:33:04;94133.56;;;14.73;89.47
65832;BME280;52593;42.648;23.332;2023-08-07T03:35:30;94133.66;;;14.85;89.07
65832;BME280;52593;42.648;23.332;2023-08-07T03:37:55;94139.00;;;14.92;88.45
65832;BME280;52593;42.648;23.332;2023-08-07T03:40:21;94151.34;;;14.81;88.22
65832;BME280;52593;42.648;23.332;2023-08-07T03:42:46;94150.28;;;14.82;88.97
65832;BME280;52593;42.648;23.332;2023-08-07T03:45:12;94157.16;;;14.78;88.77
65832;BME280;52593;42.648;23.332;2023-08-07T03:47:37;94153.84;;;14.76;89.29
65832;BME280;52593;42.648;23.332;2023-08-07T03:50:03;94159.19;;;14.83;88.86
65832;BME280;52593;42.648;23.332;2023-08-07T03:52:28;94157.59;;;14.75;88.98
65832;BME280;52593;42.648;23.332;2023-08-07T03:54:54;94157.41;;;14.70;89.15
65832;BME280;52593;42.648;23.332;2023-08-07T03:57:19;94158.47;;;14.69;88.69
65832;BME280;52593;42.648;23.332;2023-08-07T03:59:44;94156.59;;;14.69;88.65
65832;BME280;52593;42.648;23.332;2023-08-07T04:02:10;94165.25;;;14.78;87.87
65832;BME280;52593;42.648;23.332;2023-08-07T04:04:35;94166.13;;;14.72;87.92
65832;BME280;52593;42.648;23.332;2023-08-07T04:07:01;94175.38;;;14.76;87.32
65832;BME280;52593;42.648;23.332;2023-08-07T04:09:26;94176.81;;;14.78;86.58
65832;BME280;52593;42.648;23.332;2023-08-07T04:11:51;94179.00;;;14.95;85.59
65832;BME280;52593;42.648;23.332;2023-08-07T04:14:17;94180.84;;;14.94;85.91
65832;BME280;52593;42.648;23.332;2023-08-07T04:16:42;94187.06;;;14.95;85.18
65832;BME280;52593;42.648;23.332;2023-08-07T04:19:08;94192.84;;;14.98;85.33
65832;BME280;52593;42.648;23.332;2023-08-07T04:21:33;94186.28;;;14.88;85.08
65832;BME280;52593;42.648;23.332;2023-08-07T04:23:59;94185.41;;;14.94;85.11
65832;BME280;52593;42.648;23.332;2023-08-07T04:26:33;94182.88;;;14.99;84.74
65832;BME280;52593;42.648;23.332;2023-08-07T04:28:59;94195.09;;;15.02;84.43
65832;BME280;52593;42.648;23.332;2023-08-07T04:31:24;94190.72;;;15.01;85.32
65832;BME280;52593;42.648;23.332;2023-08-07T04:33:50;94186.69;;;15.16;83.79
65832;BME280;52593;42.648;23.332;2023-08-07T04:36:15;94195.81;;;14.90;85.04
65832;BME280;52593;42.648;23.332;2023-08-07T04:38:40;94197.44;;;14.91;85.03
65832;BME280;52593;42.648;23.332;2023-08-07T04:41:06;94194.97;;;14.90;85.05
65832;BME280;52593;42.648;23.332;2023-08-07T04:43:32;94193.34;;;14.89;85.02
65832;BME280;52593;42.648;23.332;2023-08-07T04:45:57;94195.63;;;14.85;85.48
65832;BME280;52593;42.648;23.332;2023-08-07T04:48:23;94203.81;;;14.72;86.31
65832;BME280;52593;42.648;23.332;2023-08-07T04:50:50;94198.00;;;14.75;86.11
65832;BME280;52593;42.648;23.332;2023-08-07T04:53:16;94193.91;;;14.66;86.28
65832;BME280;52593;42.648;23.332;2023-08-07T04:55:41;94193.41;;;14.75;86.27
65832;BME280;52593;42.648;23.332;2023-08-07T04:58:06;94188.16;;;14.87;85.82
65832;BME280;52593;42.648;23.332;2023-08-07T05:00:32;94192.69;;;14.61;85.82
65832;BME280;52593;42.648;23.332;2023-08-07T05:02:57;94202.81;;;14.66;86.13
65832;BME280;52593;42.648;23.332;2023-08-07T05:05:22;94201.94;;;14.72;85.98
65832;BME280;52593;42.648;23.332;2023-08-07T05:07:48;94202.22;;;14.64;86.27
65832;BME280;52593;42.648;23.332;2023-08-07T05:10:14;94190.59;;;14.63;86.65
65832;BME280;52593;42.648;23.332;2023-08-07T05:12:39;94187.66;;;14.72;86.92
65832;BME280;52593;42.648;23.332;2023-08-07T05:15:05;94189.69;;;14.76;86.31
65832;BME280;52593;42.648;23.332;2023-08-07T05:17:32;94186.56;;;14.79;85.58
65832;BME280;52593;42.648;23.332;2023-08-07T05:19:57;94185.91;;;14.84;85.78
65832;BME280;52593;42.648;23.332;2023-08-07T05:22:22;94188.38;;;14.86;85.75
65832;BME280;52593;42.648;23.332;2023-08-07T05:24:48;94179.97;;;15.01;85.87
65832;BME280;52593;42.648;23.332;2023-08-07T05:27:14;94178.81;;;15.15;84.11
65832;BME280;52593;42.648;23.332;2023-08-07T05:29:40;94186.59;;;15.23;83.90
65832;BME280;52593;42.648;23.332;2023-08-07T05:32:12;94187.94;;;15.39;83.23
65832;BME280;52593;42.648;23.332;2023-08-07T05:34:38;94191.75;;;15.50;82.89
65832;BME280;52593;42.648;23.332;2023-08-07T05:37:05;94190.56;;;15.46;81.56
65832;BME280;52593;42.648;23.332;2023-08-07T05:39:30;94192.66;;;15.44;81.77
65832;BME280;52593;42.648;23.332;2023-08-07T05:41:56;94191.69;;;15.57;80.62
65832;BME280;52593;42.648;23.332;2023-08-07T05:44:23;94176.03;;;15.47;80.85
65832;BME280;52593;42.648;23.332;2023-08-07T05:46:48;94187.94;;;15.39;81.10
65832;BME280;52593;42.648;23.332;2023-08-07T05:49:14;94188.06;;;15.44;81.48
65832;BME280;52593;42.648;23.332;2023-08-07T05:51:39;94194.47;;;15.50;80.72
65832;BME280;52593;42.648;23.332;2023-08-07T05:54:04;94187.09;;;15.57;80.75
65832;BME280;52593;42.648;23.332;2023-08-07T05:56:30;94186.66;;;15.60;79.62
65832;BME280;52593;42.648;23.332;2023-08-07T05:58:55;94191.38;;;15.65;78.77
65832;BME280;52593;42.648;23.332;2023-08-07T06:01:21;94192.69;;;15.62;78.90
65832;BME280;52593;42.648;23.332;2023-08-07T06:03:47;94197.75;;;15.70;78.60
65832;BME280;52593;42.648;23.332;2023-08-07T06:06:12;94195.06;;;15.70;78.91
65832;BME280;52593;42.648;23.332;2023-08-07T06:08:38;94193.59;;;15.93;78.32
65832;BME280;52593;42.648;23.332;2023-08-07T06:11:03;94195.72;;;15.91;78.41
65832;BME280;52593;42.648;23.332;2023-08-07T06:13:30;94191.81;;;15.87;77.53
65832;BME280;52593;42.648;23.332;2023-08-07T06:15:55;94176.66;;;16.04;78.06
65832;BME280;52593;42.648;23.332;2023-08-07T06:18:21;94180.00;;;16.18;77.73
65832;BME280;52593;42.648;23.332;2023-08-07T06:20:46;94181.06;;;16.17;77.89
65832;BME280;52593;42.648;23.332;2023-08-07T06:23:12;94178.44;;;16.11;77.60
65832;BME280;52593;42.648;23.332;2023-08-07T06:25:38;94177.69;;;16.22;78.11
65832;BME280;52593;42.648;23.332;2023-08-07T06:28:04;94174.53;;;16.25;76.92
65832;BME280;52593;42.648;23.332;2023-08-07T06:30:33;94168.25;;;16.43;75.59
65832;BME280;52593;42.648;23.332;2023-08-07T06:32:58;94163.50;;;16.57;75.84
65832;BME280;52593;42.648;23.332;2023-08-07T06:35:24;94166.03;;;16.82;71.83
65832;BME280;52593;42.648;23.332;2023-08-07T06:37:49;94163.00;;;16.90;68.33
65832;BME280;52593;42.648;23.332;2023-08-07T06:40:15;94170.00;;;16.80;68.44
65832;BME280;52593;42.648;23.332;2023-08-07T06:42:40;94159.03;;;16.93;66.80
65832;BME280;52593;42.648;23.332;2023-08-07T06:45:06;94166.00;;;17.13;66.62
65832;BME280;52593;42.648;23.332;2023-08-07T06:47:31;94174.94;;;17.25;64.91
65832;BME280;52593;42.648;23.332;2023-08-07T06:49:57;94174.94;;;17.25;61.66
65832;BME280;52593;42.648;23.332;2023-08-07T06:52:22;94175.78;;;17.49;63.18
65832;BME280;52593;42.648;23.332;2023-08-07T06:54:48;94170.00;;;17.69;61.92
65832;BME280;52593;42.648;23.332;2023-08-07T06:57:14;94181.41;;;17.47;58.83
65832;BME280;52593;42.648;23.332;2023-08-07T06:59:39;94175.78;;;17.37;57.47
65832;BME280;52593;42.648;23.332;2023-08-07T07:02:05;94177.63;;;17.48;59.21
65832;BME280;52593;42.648;23.332;2023-08-07T07:04:31;94177.16;;;17.52;60.50
65832;BME280;52593;42.648;23.332;2023-08-07T07:06:56;94174.59;;;17.57;59.69
65832;BME280;52593;42.648;23.332;2023-08-07T07:09:22;94160.59;;;17.60;60.03
65832;BME280;52593;42.648;23.332;2023-08-07T07:11:47;94161.75;;;17.76;59.38
65832;BME280;52593;42.648;23.332;2023-08-07T07:14:13;94161.28;;;17.79;59.72
65832;BME280;52593;42.648;23.332;2023-08-07T07:16:38;94155.88;;;17.67;59.88
65832;BME280;52593;42.648;23.332;2023-08-07T07:19:05;94161.88;;;17.81;60.20
65832;BME280;52593;42.648;23.332;2023-08-07T07:21:33;94162.56;;;17.76;60.58
65832;BME280;52593;42.648;23.332;2023-08-07T07:23:58;94167.16;;;17.88;61.52
65832;BME280;52593;42.648;23.332;2023-08-07T07:26:24;94169.75;;;17.82;61.84
65832;BME280;52593;42.648;23.332;2023-08-07T07:28:49;94167.41;;;17.98;61.69
65832;BME280;52593;42.648;23.332;2023-08-07T07:31:16;94169.06;;;18.28;61.31
65832;BME280;52593;42.648;23.332;2023-08-07T07:33:41;94165.47;;;18.39;61.83
65832;BME280;52593;42.648;23.332;2023-08-07T07:36:07;94169.03;;;18.40;60.87
65832;BME280;52593;42.648;23.332;2023-08-07T07:38:32;94168.19;;;18.39;61.60
65832;BME280;52593;42.648;23.332;2023-08-07T07:40:58;94169.88;;;18.28;61.32
65832;BME280;52593;42.648;23.332;2023-08-07T07:43:23;94170.31;;;18.37;61.18
65832;BME280;52593;42.648;23.332;2023-08-07T07:45:49;94171.06;;;18.32;60.52
65832;BME280;52593;42.648;23.332;2023-08-07T07:48:14;94164.53;;;18.45;60.64
65832;BME280;52593;42.648;23.332;2023-08-07T07:50:41;94160.28;;;18.49;60.15
65832;BME280;52593;42.648;23.332;2023-08-07T07:53:06;94156.53;;;18.67;59.50
65832;BME280;52593;42.648;23.332;2023-08-07T07:55:32;94157.47;;;18.73;58.72
65832;BME280;52593;42.648;23.332;2023-08-07T07:57:59;94160.00;;;18.80;59.11
65832;BME280;52593;42.648;23.332;2023-08-07T08:00:24;94165.66;;;18.78;59.05
65832;BME280;52593;42.648;23.332;2023-08-07T08:02:53;94166.59;;;18.84;58.80
65832;BME280;52593;42.648;23.332;2023-08-07T08:05:19;94157.63;;;18.83;58.13
65832;BME280;52593;42.648;23.332;2023-08-07T08:07:45;94152.50;;;18.99;58.16
65832;BME280;52593;42.648;23.332;2023-08-07T08:10:10;94156.88;;;18.71;57.96
65832;BME280;52593;42.648;23.332;2023-08-07T08:12:36;94167.03;;;18.93;58.85
65832;BME280;52593;42.648;23.332;2023-08-07T08:15:02;94167.06;;;19.10;57.92
65832;BME280;52593;42.648;23.332;2023-08-07T08:17:28;94163.50;;;19.09;57.55
65832;BME280;52593;42.648;23.332;2023-08-07T08:19:54;94160.31;;;19.29;57.16
65832;BME280;52593;42.648;23.332;2023-08-07T08:22:19;94166.88;;;19.33;57.54
65832;BME280;52593;42.648;23.332;2023-08-07T08:24:44;94157.81;;;19.45;56.55
65832;BME280;52593;42.648;23.332;2023-08-07T08:27:10;94147.38;;;19.53;58.00
65832;BME280;52593;42.648;23.332;2023-08-07T08:29:36;94147.28;;;19.65;56.19
65832;BME280;52593;42.648;23.332;2023-08-07T08:32:01;94153.03;;;19.69;57.63
65832;BME280;52593;42.648;23.332;2023-08-07T08:34:27;94148.09;;;19.83;57.25
65832;BME280;52593;42.648;23.332;2023-08-07T08:36:52;94157.81;;;20.01;54.39
65832;BME280;52593;42.648;23.332;2023-08-07T08:39:18;94149.47;;;19.85;54.26
65832;BME280;52593;42.648;23.332;2023-08-07T08:41:46;94144.50;;;19.77;54.78
65832;BME280;52593;42.648;23.332;2023-08-07T08:44:13;94137.59;;;20.13;53.15
65832;BME280;52593;42.648;23.332;2023-08-07T08:46:42;94146.44;;;20.26;53.17
65832;BME280;52593;42.648;23.332;2023-08-07T08:49:08;94143.59;;;20.38;52.37
65832;BME280;52593;42.648;23.332;2023-08-07T08:51:34;94143.22;;;20.51;52.72
65832;BME280;52593;42.648;23.332;2023-08-07T08:53:59;94140.97;;;20.70;51.45
65832;BME280;52593;42.648;23.332;2023-08-07T08:56:27;94144.03;;;20.74;53.02
65832;BME280;52593;42.648;23.332;2023-08-07T08:58:53;94135.28;;;20.72;50.25
65832;BME280;52593;42.648;23.332;2023-08-07T09:01:19;94143.88;;;20.63;50.65
65832;BME280;52593;42.648;23.332;2023-08-07T09:03:45;94130.34;;;20.69;51.26
65832;BME280;52593;42.648;23.332;2023-08-07T09:06:12;94119.34;;;21.13;49.46
65832;BME280;52593;42.648;23.332;2023-08-07T09:08:40;94120.09;;;21.08;48.79
65832;BME280;52593;42.648;23.332;2023-08-07T09:11:08;94124.78;;;21.13;48.42
65832;BME280;52593;42.648;23.332;2023-08-07T09:13:36;94114.72;;;21.13;48.92
65832;BME280;52593;42.648;23.332;2023-08-07T09:16:02;94121.13;;;21.34;48.45
65832;BME280;52593;42.648;23.332;2023-08-07T09:18:29;94119.75;;;21.32;48.35
65832;BME280;52593;42.648;23.332;2023-08-07T09:20:55;94122.84;;;21.46;48.22
65832;BME280;52593;42.648;23.332;2023-08-07T09:23:24;94122.69;;;21.25;48.13
65832;BME280;52593;42.648;23.332;2023-08-07T09:25:59;94119.56;;;21.44;48.42
65832;BME280;52593;42.648;23.332;2023-08-07T09:28:25;94113.81;;;21.40;48.50
65832;BME280;52593;42.648;23.332;2023-08-07T09:30:52;94105.91;;;21.76;47.74
65832;BME280;52593;42.648;23.332;2023-08-07T09:33:24;94100.28;;;21.98;46.72
65832;BME280;52593;42.648;23.332;2023-08-07T09:35:50;94103.06;;;22.08;47.56
65832;BME280;52593;42.648;23.332;2023-08-07T09:38:15;94105.91;;;22.39;46.53
65832;BME280;52593;42.648;23.332;2023-08-07T09:40:41;94106.72;;;22.35;46.59
65832;BME280;52593;42.648;23.332;2023-08-07T09:43:07;94102.66;;;22.48;45.95
65832;BME280;52593;42.648;23.332;2023-08-07T09:45:33;94108.09;;;22.42;45.66
65832;BME280;52593;42.648;23.332;2023-08-07T09:48:05;94107.81;;;22.34;46.48
65832;BME280;52593;42.648;23.332;2023-08-07T09:50:36;94098.28;;;22.36;45.69
65832;BME280;52593;42.648;23.332;2023-08-07T09:53:01;94105.38;;;22.48;46.05
65832;BME280;52593;42.648;23.332;2023-08-07T09:55:27;94103.94;;;22.24;46.63
65832;BME280;52593;42.648;23.332;2023-08-07T09:57:53;94101.47;;;22.18;46.88
65832;BME280;52593;42.648;23.332;2023-08-07T10:00:19;94100.97;;;22.31;46.35
65832;BME280;52593;42.648;23.332;2023-08-07T10:02:49;94098.88;;;22.59;45.78
65832;BME280;52593;42.648;23.332;2023-08-07T10:05:16;94097.81;;;22.70;45.81
65832;BME280;52593;42.648;23.332;2023-08-07T10:07:42;94095.38;;;23.00;45.34
65832;BME280;52593;42.648;23.332;2023-08-07T10:10:08;94100.56;;;23.32;44.42
65832;BME280;52593;42.648;23.332;2023-08-07T10:12:34;94095.38;;;23.00;44.33
65832;BME280;52593;42.648;23.332;2023-08-07T10:15:00;94096.47;;;22.88;45.05
65832;BME280;52593;42.648;23.332;2023-08-07T10:17:27;94094.06;;;23.12;44.14
65832;BME280;52593;42.648;23.332;2023-08-07T10:19:52;94101.13;;;23.24;44.62
65832;BME280;52593;42.648;23.332;2023-08-07T10:22:19;94102.22;;;23.38;44.03
65832;BME280;52593;42.648;23.332;2023-08-07T10:24:47;94094.25;;;23.52;43.53
65832;BME280;52593;42.648;23.332;2023-08-07T10:27:18;94102.19;;;23.59;43.30
65832;BME280;52593;42.648;23.332;2023-08-07T10:29:46;94094.00;;;23.59;42.73
65832;BME280;52593;42.648;23.332;2023-08-07T10:32:15;94102.69;;;23.81;43.12
65832;BME280;52593;42.648;23.332;2023-08-07T10:34:46;94100.50;;;23.83;41.75
65832;BME280;52593;42.648;23.332;2023-08-07T10:40:04;94089.06;;;23.71;42.84
65832;BME280;52593;42.648;23.332;2023-08-07T10:45:21;94083.81;;;24.55;42.72
65832;BME280;52593;42.648;23.332;2023-08-07T10:50:32;94079.00;;;24.32;41.99
65832;BME280;52593;42.648;23.332;2023-08-07T10:53:04;94082.22;;;24.49;40.93
65832;BME280;52593;42.648;23.332;2023-08-07T10:55:45;94087.56;;;24.20;41.83
65832;BME280;52593;42.648;23.332;2023-08-07T10:58:22;94076.94;;;24.63;40.92
65832;BME280;52593;42.648;23.332;2023-08-07T11:00:48;94078.63;;;24.99;40.09
65832;BME280;52593;42.648;23.332;2023-08-07T11:03:25;94069.03;;;25.01;40.93
65832;BME280;52593;42.648;23.332;2023-08-07T11:05:51;94068.25;;;24.96;39.92
65832;BME280;52593;42.648;23.332;2023-08-07T11:08:21;94074.50;;;24.56;40.28
65832;BME280;52593;42.648;23.332;2023-08-07T11:10:47;94069.16;;;24.86;39.99
65832;BME280;52593;42.648;23.332;2023-08-07T11:13:12;94052.88;;;25.00;39.41
65832;BME280;52593;42.648;23.332;2023-08-07T11:15:37;94047.22;;;25.20;39.39
65832;BME280;52593;42.648;23.332;2023-08-07T11:18:03;94041.97;;;24.95;39.63
65832;BME280;52593;42.648;23.332;2023-08-07T11:20:28;94039.59;;;25.17;40.17
65832;BME280;52593;42.648;23.332;2023-08-07T11:22:54;94029.63;;;25.85;40.64
65832;BME280;52593;42.648;23.332;2023-08-07T11:25:20;94025.34;;;26.22;37.39
65832;BME280;52593;42.648;23.332;2023-08-07T11:27:45;94028.69;;;26.19;37.78
65832;BME280;52593;42.648;23.332;2023-08-07T11:30:11;94026.81;;;26.14;37.43
65832;BME280;52593;42.648;23.332;2023-08-07T11:32:37;94029.28;;;26.16;37.04
65832;BME280;52593;42.648;23.332;2023-08-07T11:35:03;94030.53;;;26.43;37.04
65832;BME280;52593;42.648;23.332;2023-08-07T11:37:30;94033.56;;;25.74;37.06
65832;BME280;52593;42.648;23.332;2023-08-07T11:40:00;94034.31;;;25.55;38.10
65832;BME280;52593;42.648;23.332;2023-08-07T11:42:27;94023.66;;;25.54;38.37
65832;BME280;52593;42.648;23.332;2023-08-07T11:44:53;94041.09;;;24.99;39.69
65832;BME280;52593;42.648;23.332;2023-08-07T11:47:18;94052.66;;;24.51;40.06
65832;BME280;52593;42.648;23.332;2023-08-07T11:49:44;94042.63;;;24.81;39.37
65832;BME280;52593;42.648;23.332;2023-08-07T11:52:10;94044.75;;;24.89;39.40
65832;BME280;52593;42.648;23.332;2023-08-07T11:54:36;94034.66;;;25.19;39.23
65832;BME280;52593;42.648;23.332;2023-08-07T11:57:01;94031.78;;;25.64;40.35
65832;BME280;52593;42.648;23.332;2023-08-07T11:59:26;94028.56;;;25.27;38.02
65832;BME280;52593;42.648;23.332;2023-08-07T12:01:52;94021.13;;;25.87;37.72
65832;BME280;52593;42.648;23.332;2023-08-07T12:04:17;94031.63;;;26.04;37.28
65832;BME280;52593;42.648;23.332;2023-08-07T12:06:56;94020.63;;;25.55;38.51
65832;BME280;52593;42.648;23.332;2023-08-07T12:09:21;94018.06;;;26.12;37.78
65832;BME280;52593;42.648;23.332;2023-08-07T12:11:47;94009.41;;;26.62;37.98
65832;BME280;52593;42.648;23.332;2023-08-07T12:14:16;94014.63;;;26.45;36.47
65832;BME280;52593;42.648;23.332;2023-08-07T12:16:44;94014.94;;;25.76;38.23
65832;BME280;52593;42.648;23.332;2023-08-07T12:19:12;94017.44;;;25.72;38.04
65832;BME280;52593;42.648;23.332;2023-08-07T12:21:40;94014.63;;;26.45;37.07
65832;BME280;52593;42.648;23.332;2023-08-07T12:24:07;94016.84;;;26.62;36.59
65832;BME280;52593;42.648;23.332;2023-08-07T12:26:32;94013.50;;;26.65;36.79
65832;BME280;52593;42.648;23.332;2023-08-07T12:28:57;94007.00;;;27.13;36.37
65832;BME280;52593;42.648;23.332;2023-08-07T12:31:23;94003.94;;;27.61;35.14
65832;BME280;52593;42.648;23.332;2023-08-07T12:33:48;93999.19;;;27.20;36.01
65832;BME280;52593;42.648;23.332;2023-08-07T12:36:14;94010.41;;;26.52;36.51
65832;BME280;52593;42.648;23.332;2023-08-07T12:38:40;94017.47;;;26.15;37.46
65832;BME280;52593;42.648;23.332;2023-08-07T12:41:05;94016.53;;;26.44;37.86
65832;BME280;52593;42.648;23.332;2023-08-07T12:43:31;94025.78;;;26.29;38.36
65832;BME280;52593;42.648;23.332;2023-08-07T12:45:56;94024.38;;;26.13;39.05
65832;BME280;52593;42.648;23.332;2023-08-07T12:48:22;94032.31;;;26.14;39.18
65832;BME280;52593;42.648;23.332;2023-08-07T12:50:47;94033.72;;;26.31;39.03
65832;BME280;52593;42.648;23.332;2023-08-07T12:53:12;94030.78;;;26.65;38.84
65832;BME280;52593;42.648;23.332;2023-08-07T12:55:38;94035.59;;;26.74;37.86
65832;BME280;52593;42.648;23.332;2023-08-07T12:58:03;94031.44;;;27.28;37.59